Time;durP1;ratioP1;P1;durP2;ratioP2;P2;SDS_P1;SDS_P2;PMS_P1;PMS_P2;Temp;Humidity;BMP_temperature;BMP_pressure;BME280_temperature;BME280_humidity;BME280_pressure;Samples;Min_cycle;Max_cycle;Signal;HPM_P1;HPM_P2
2022/10/26 00:01:26;;;;;;;12.45;6.40;;;9.20;99.90;;;;;;4947270;28;20120;-77
2022/10/26 00:03:53;;;;;;;9.07;4.03;;;9.20;99.90;;;;;;4961534;28;20392;-77
2022/10/26 00:06:20;;;;;;;6.22;3.47;;;9.20;99.90;;;;;;4970668;28;20027;-78
2022/10/26 00:08:46;;;;;;;7.47;3.78;;;9.20;99.90;;;;;;4939166;28;20038;-77
2022/10/26 00:11:11;;;;;;;8.45;3.28;;;9.20;99.90;;;;;;4951609;28;20034;-78
2022/10/26 00:13:37;;;;;;;6.13;3.88;;;9.30;99.90;;;;;;4966179;28;20034;-78
2022/10/26 00:16:29;;;;;;;8.23;3.90;;;9.30;99.90;;;;;;4949829;28;20045;-77
2022/10/26 00:18:54;;;;;;;7.32;4.07;;;9.30;99.90;;;;;;4965892;28;20679;-77
2022/10/26 00:21:20;;;;;;;9.02;3.90;;;9.40;99.90;;;;;;4951537;28;20110;-77
2022/10/26 00:23:45;;;;;;;7.90;3.55;;;9.30;99.90;;;;;;4954492;28;20122;-77
2022/10/26 00:26:11;;;;;;;10.32;4.10;;;9.30;99.90;;;;;;4952393;28;20042;-77
2022/10/26 00:28:37;;;;;;;8.45;3.53;;;9.40;99.90;;;;;;4955247;28;20034;-77
2022/10/26 00:31:04;;;;;;;10.40;4.65;;;9.40;99.90;;;;;;4953343;28;20030;-77
2022/10/26 00:33:30;;;;;;;9.88;3.90;;;9.30;99.90;;;;;;4932727;28;20101;-78
2022/10/26 00:35:55;;;;;;;7.95;4.18;;;9.40;99.90;;;;;;4970413;28;20113;-77
2022/10/26 00:38:21;;;;;;;10.27;3.80;;;9.50;99.90;;;;;;4964256;28;20158;-78
2022/10/26 00:40:47;;;;;;;9.98;4.13;;;9.50;99.90;;;;;;4982316;28;20042;-77
2022/10/26 00:43:20;;;;;;;9.23;4.30;;;9.40;99.90;;;;;;4952667;28;20517;-78
2022/10/26 00:45:45;;;;;;;12.63;4.78;;;9.50;99.90;;;;;;4966740;28;20035;-77
2022/10/26 00:48:17;;;;;;;19.08;4.93;;;9.60;99.90;;;;;;4964865;28;20065;-77
2022/10/26 00:50:43;;;;;;;10.45;4.70;;;9.60;99.90;;;;;;4963017;28;20375;-77
2022/10/26 00:53:08;;;;;;;8.13;4.22;;;9.60;99.90;;;;;;4954036;28;20041;-77
2022/10/26 00:55:36;;;;;;;8.10;4.10;;;9.60;99.90;;;;;;4969072;28;20085;-77
2022/10/26 00:58:02;;;;;;;9.85;4.47;;;9.70;99.90;;;;;;4961744;28;20049;-77
2022/10/26 01:00:27;;;;;;;5.80;4.40;;;9.70;99.90;;;;;;4950348;28;20046;-78
2022/10/26 01:02:54;;;;;;;9.98;4.85;;;9.80;99.90;;;;;;4955177;28;20030;-78
2022/10/26 01:05:20;;;;;;;9.23;5.15;;;9.90;99.90;;;;;;4951628;28;20022;-77
2022/10/26 01:07:45;;;;;;;10.45;4.82;;;9.80;99.90;;;;;;4963371;28;20042;-77
2022/10/26 01:10:12;;;;;;;16.30;5.25;;;9.90;99.90;;;;;;4948365;28;20034;-78
2022/10/26 01:12:38;;;;;;;7.45;4.78;;;9.90;99.90;;;;;;4963074;28;20041;-78
2022/10/26 01:15:04;;;;;;;9.32;4.90;;;9.90;99.90;;;;;;4946408;28;20410;-77
2022/10/26 01:17:53;;;;;;;10.05;4.50;;;9.90;99.90;;;;;;4949414;28;20031;-77
2022/10/26 01:20:39;;;;;;;15.02;5.05;;;9.90;99.90;;;;;;4962173;28;20380;-77
2022/10/26 01:23:11;;;;;;;9.32;3.72;;;9.90;99.90;;;;;;4950999;28;20518;-77
2022/10/26 01:26:03;;;;;;;10.77;4.05;;;10.00;99.90;;;;;;4965584;28;20082;-77
2022/10/26 01:28:54;;;;;;;9.32;3.60;;;10.00;99.90;;;;;;4952023;28;20031;-77
2022/10/26 01:31:23;;;;;;;10.18;4.47;;;10.00;99.90;;;;;;4965879;28;20126;-78
2022/10/26 01:34:02;;;;;;;12.02;4.03;;;10.00;99.90;;;;;;4968913;28;20194;-77
2022/10/26 01:36:40;;;;;;;10.23;5.13;;;10.00;99.90;;;;;;4952720;28;20505;-78
2022/10/26 01:39:18;;;;;;;10.82;4.60;;;10.00;99.90;;;;;;4963534;28;20038;-77
2022/10/26 01:41:50;;;;;;;7.35;3.90;;;10.00;99.90;;;;;;4936640;28;20035;-77
2022/10/26 01:44:20;;;;;;;6.40;3.47;;;10.00;99.90;;;;;;4942137;28;20042;-78
2022/10/26 01:46:47;;;;;;;9.32;3.50;;;10.00;99.90;;;;;;4928091;28;20121;-77
2022/10/26 01:49:13;;;;;;;8.60;3.67;;;10.10;99.90;;;;;;4981754;28;20030;-77
2022/10/26 01:51:40;;;;;;;9.80;3.85;;;10.10;99.90;;;;;;4937622;28;20554;-77
2022/10/26 01:54:06;;;;;;;10.68;4.35;;;10.10;99.90;;;;;;4950866;28;20030;-77
2022/10/26 01:56:35;;;;;;;7.80;3.60;;;10.10;99.90;;;;;;4979255;28;20825;-77
2022/10/26 01:59:30;;;;;;;7.35;3.17;;;10.10;99.90;;;;;;4950966;28;20046;-77
2022/10/26 02:02:10;;;;;;;7.75;2.75;;;10.10;99.90;;;;;;4960642;28;20038;-77
2022/10/26 02:04:57;;;;;;;4.93;3.33;;;10.20;99.90;;;;;;4964240;28;20058;-78
2022/10/26 02:07:40;;;;;;;5.38;2.10;;;10.30;99.90;;;;;;4980696;28;20038;-77
2022/10/26 02:10:14;;;;;;;6.55;2.65;;;10.30;99.90;;;;;;4984580;28;20522;-78
2022/10/26 02:12:57;;;;;;;3.38;1.85;;;10.40;99.90;;;;;;4962951;28;20031;-77
2022/10/26 02:15:34;;;;;;;6.05;2.50;;;10.50;99.90;;;;;;4947892;28;20171;-78
2022/10/26 02:18:07;;;;;;;4.22;1.63;;;10.50;99.90;;;;;;4950800;28;20041;-77
2022/10/26 02:20:39;;;;;;;2.38;1.85;;;10.60;99.90;;;;;;4949962;28;20062;-78
2022/10/26 02:23:05;;;;;;;6.38;2.55;;;10.60;99.90;;;;;;4950359;28;20565;-78
2022/10/26 02:25:32;;;;;;;5.00;1.95;;;10.60;99.90;;;;;;4939121;28;20039;-78
2022/10/26 02:28:04;;;;;;;4.57;1.95;;;10.60;99.90;;;;;;4958399;28;20088;-77
2022/10/26 02:30:29;;;;;;;3.70;1.48;;;10.80;99.90;;;;;;4951525;28;20038;-78
2022/10/26 02:32:55;;;;;;;4.30;1.85;;;10.70;99.90;;;;;;4981938;28;20040;-78
2022/10/26 02:35:25;;;;;;;5.43;1.52;;;10.80;99.90;;;;;;4942244;28;20042;-78
2022/10/26 02:37:51;;;;;;;8.05;2.08;;;10.90;99.90;;;;;;4951506;28;20023;-78
2022/10/26 02:40:19;;;;;;;5.22;1.88;;;10.90;99.90;;;;;;4934724;28;20085;-78
2022/10/26 02:42:45;;;;;;;6.88;1.95;;;10.90;99.90;;;;;;4951400;28;20081;-77
2022/10/26 02:45:12;;;;;;;3.42;1.60;;;10.90;99.90;;;;;;4951976;28;20054;-77
2022/10/26 02:47:38;;;;;;;2.90;2.00;;;11.00;99.90;;;;;;4948237;28;20035;-77
2022/10/26 02:50:04;;;;;;;2.63;1.63;;;11.00;99.90;;;;;;4951159;28;20034;-78
2022/10/26 02:52:44;;;;;;;8.13;2.13;;;11.00;99.90;;;;;;4962391;28;20034;-77
2022/10/26 02:55:24;;;;;;;4.90;1.65;;;11.00;99.90;;;;;;4979842;28;20036;-77
2022/10/26 02:57:52;;;;;;;7.53;2.77;;;11.10;99.90;;;;;;4963417;28;20510;-77
2022/10/26 03:00:18;;;;;;;5.03;1.48;;;11.10;99.90;;;;;;4949437;28;20081;-77
2022/10/26 03:02:44;;;;;;;4.72;1.85;;;11.10;99.90;;;;;;4947556;28;20052;-77
2022/10/26 03:05:15;;;;;;;8.95;1.92;;;11.20;99.90;;;;;;4947724;28;20486;-77
2022/10/26 03:07:41;;;;;;;4.93;1.63;;;11.20;99.90;;;;;;4932236;28;20105;-78
2022/10/26 03:10:07;;;;;;;5.30;1.58;;;11.20;99.90;;;;;;4950947;28;20035;-77
2022/10/26 03:12:32;;;;;;;4.63;1.65;;;11.30;99.90;;;;;;4952313;28;20038;-77
2022/10/26 03:14:58;;;;;;;5.82;1.55;;;11.40;99.90;;;;;;4961908;28;20056;-78
2022/10/26 03:17:23;;;;;;;2.58;1.27;;;11.40;99.90;;;;;;4963377;28;20034;-78
2022/10/26 03:19:49;;;;;;;5.78;1.55;;;11.40;99.90;;;;;;4958627;28;20031;-77
2022/10/26 03:22:14;;;;;;;2.17;1.50;;;11.50;99.90;;;;;;4947760;28;20402;-77
2022/10/26 03:24:40;;;;;;;4.65;1.33;;;11.40;99.90;;;;;;4978889;28;20035;-77
2022/10/26 03:27:06;;;;;;;4.35;1.20;;;11.50;99.90;;;;;;4961425;28;20410;-77
2022/10/26 03:29:31;;;;;;;5.13;1.45;;;11.50;99.90;;;;;;4950243;28;20438;-77
2022/10/26 03:31:57;;;;;;;4.95;1.48;;;11.50;99.90;;;;;;4961764;28;20061;-78
2022/10/26 03:34:22;;;;;;;5.22;1.58;;;11.60;99.90;;;;;;4965061;28;20038;-77
2022/10/26 03:36:48;;;;;;;4.15;1.35;;;11.70;99.90;;;;;;4962741;28;20085;-77
2022/10/26 03:39:13;;;;;;;4.07;1.42;;;11.60;99.90;;;;;;4967082;28;20046;-78
2022/10/26 03:41:39;;;;;;;8.80;2.13;;;11.70;99.90;;;;;;4952361;28;20046;-78
2022/10/26 03:44:04;;;;;;;8.88;1.70;;;11.70;99.90;;;;;;4953927;28;20038;-77
2022/10/26 03:46:30;;;;;;;2.05;1.30;;;11.70;99.90;;;;;;4962256;28;20030;-77
2022/10/26 03:48:55;;;;;;;3.45;1.30;;;11.90;99.90;;;;;;4964907;28;20494;-77
2022/10/26 03:51:21;;;;;;;6.90;1.60;;;11.90;99.90;;;;;;4948967;28;20042;-78
2022/10/26 03:53:46;;;;;;;3.88;1.40;;;11.90;99.90;;;;;;4969596;28;20038;-77
2022/10/26 03:56:12;;;;;;;6.13;1.50;;;11.90;99.90;;;;;;4965377;28;20038;-78
2022/10/26 03:58:37;;;;;;;6.80;1.13;;;12.00;99.90;;;;;;4970848;28;20449;-78
2022/10/26 04:01:03;;;;;;;4.47;1.10;;;12.00;99.90;;;;;;4951135;28;20719;-78
2022/10/26 04:03:28;;;;;;;7.38;1.63;;;12.00;99.90;;;;;;4952881;28;20038;-77
2022/10/26 04:05:54;;;;;;;12.88;2.00;;;12.00;99.90;;;;;;4965074;28;20070;-78
2022/10/26 04:08:19;;;;;;;3.78;1.45;;;12.00;99.90;;;;;;4966527;28;20046;-78
2022/10/26 04:10:46;;;;;;;5.88;1.65;;;12.10;99.90;;;;;;4950399;28;20109;-77
2022/10/26 04:13:11;;;;;;;4.60;1.17;;;12.10;99.90;;;;;;4957729;28;20046;-77
2022/10/26 04:15:37;;;;;;;6.32;1.27;;;12.10;99.90;;;;;;4971211;28;20058;-78
2022/10/26 04:18:03;;;;;;;2.40;1.25;;;12.10;99.90;;;;;;4983141;28;20060;-78
2022/10/26 04:20:29;;;;;;;3.95;2.05;;;12.20;99.90;;;;;;4964183;28;20027;-77
2022/10/26 04:23:03;;;;;;;3.47;1.05;;;12.10;99.90;;;;;;4952582;28;20692;-78
2022/10/26 04:25:29;;;;;;;7.60;1.42;;;12.20;99.90;;;;;;4949302;28;20030;-77
2022/10/26 04:27:54;;;;;;;13.85;1.33;;;12.20;99.90;;;;;;4953721;28;20049;-78
2022/10/26 04:30:20;;;;;;;6.10;1.50;;;12.20;99.90;;;;;;4979482;28;20063;-78
2022/10/26 04:32:45;;;;;;;10.13;1.70;;;12.20;99.90;;;;;;4948352;28;20081;-77
2022/10/26 04:35:11;;;;;;;3.72;1.58;;;12.20;99.90;;;;;;4950275;28;20031;-78
2022/10/26 04:37:36;;;;;;;3.05;1.42;;;12.30;99.90;;;;;;4964274;28;20038;-78
2022/10/26 04:40:03;;;;;;;5.28;1.35;;;12.20;99.90;;;;;;4949821;28;20061;-78
2022/10/26 04:42:32;;;;;;;4.05;1.20;;;12.20;99.90;;;;;;4947119;28;20724;-77
2022/10/26 04:44:58;;;;;;;2.97;1.42;;;12.30;99.90;;;;;;4979607;28;20022;-78
2022/10/26 04:47:24;;;;;;;3.75;1.75;;;12.30;99.90;;;;;;4967619;28;20088;-78
2022/10/26 04:49:49;;;;;;;4.43;1.33;;;12.30;99.90;;;;;;4952515;28;20093;-78
2022/10/26 04:52:15;;;;;;;3.70;1.30;;;12.40;99.90;;;;;;4964721;28;20042;-78
2022/10/26 04:54:41;;;;;;;4.72;1.33;;;12.40;99.90;;;;;;4965723;28;20030;-78
2022/10/26 04:57:06;;;;;;;2.35;1.10;;;12.50;99.90;;;;;;4948653;28;20035;-77
2022/10/26 04:59:32;;;;;;;3.90;1.10;;;12.50;99.90;;;;;;4966666;28;20406;-77
2022/10/26 05:01:57;;;;;;;5.10;1.08;;;12.50;99.90;;;;;;4963152;28;20034;-77
2022/10/26 05:04:23;;;;;;;7.85;1.98;;;12.60;99.90;;;;;;4965255;28;20049;-77
2022/10/26 05:06:51;;;;;;;2.47;1.35;;;12.60;99.90;;;;;;4968416;28;20050;-78
2022/10/26 05:09:17;;;;;;;5.85;1.02;;;12.60;99.90;;;;;;4977849;28;20038;-78
2022/10/26 05:11:42;;;;;;;1.23;0.93;;;12.60;99.90;;;;;;4958110;28;20030;-78
2022/10/26 05:14:08;;;;;;;4.68;1.27;;;12.70;99.90;;;;;;4964452;28;20034;-77
2022/10/26 05:16:34;;;;;;;1.70;0.85;;;12.60;99.90;;;;;;4967632;28;20505;-78
2022/10/26 05:18:59;;;;;;;5.63;1.55;;;12.70;99.90;;;;;;4964850;28;20121;-78
2022/10/26 05:21:25;;;;;;;2.80;0.90;;;12.70;99.90;;;;;;4950070;28;20119;-78
2022/10/26 05:23:52;;;;;;;8.90;2.22;;;12.70;99.90;;;;;;4963959;28;20050;-77
2022/10/26 05:26:18;;;;;;;3.33;1.10;;;12.70;99.90;;;;;;4937378;28;20046;-77
2022/10/26 05:28:44;;;;;;;3.75;1.45;;;12.70;99.90;;;;;;4962332;28;20490;-77
2022/10/26 05:31:10;;;;;;;2.03;0.93;;;12.80;99.90;;;;;;4950482;28;20041;-78
2022/10/26 05:33:35;;;;;;;6.35;1.00;;;12.80;99.90;;;;;;4965257;28;20037;-78
2022/10/26 05:36:01;;;;;;;4.55;1.00;;;12.80;99.90;;;;;;4961689;28;20038;-78
2022/10/26 05:38:26;;;;;;;1.73;1.20;;;12.80;99.90;;;;;;4965215;28;20105;-77
2022/10/26 05:40:52;;;;;;;4.40;0.90;;;12.90;99.90;;;;;;4967943;28;20037;-77
2022/10/26 05:43:19;;;;;;;1.55;0.93;;;12.90;99.90;;;;;;4951235;28;20069;-77
2022/10/26 05:45:44;;;;;;;2.00;0.80;;;12.90;99.90;;;;;;4952826;28;20034;-77
2022/10/26 05:48:10;;;;;;;1.92;1.00;;;13.00;99.90;;;;;;4983645;28;20029;-77
2022/10/26 05:50:35;;;;;;;4.25;0.90;;;12.90;99.90;;;;;;4951348;28;20375;-77
2022/10/26 05:53:01;;;;;;;3.00;1.00;;;12.90;99.90;;;;;;4952046;28;20084;-77
2022/10/26 05:55:27;;;;;;;4.43;1.48;;;12.90;99.90;;;;;;4945678;28;20034;-77
2022/10/26 05:57:52;;;;;;;3.90;1.00;;;12.90;99.90;;;;;;4947525;28;20026;-77
2022/10/26 06:00:20;;;;;;;3.10;1.10;;;12.90;99.90;;;;;;4943071;28;20039;-77
2022/10/26 06:03:00;;;;;;;3.80;1.00;;;12.90;99.90;;;;;;4958956;28;20030;-78
2022/10/26 06:05:27;;;;;;;3.92;1.20;;;12.90;99.90;;;;;;4979149;28;20502;-78
2022/10/26 06:07:52;;;;;;;1.90;0.93;;;12.80;99.90;;;;;;4950570;28;20069;-77
2022/10/26 06:10:19;;;;;;;1.92;0.93;;;12.80;99.90;;;;;;4956727;28;20426;-78
2022/10/26 06:12:45;;;;;;;7.15;1.00;;;12.80;99.90;;;;;;4959770;28;20103;-77
2022/10/26 06:15:16;;;;;;;2.95;0.80;;;12.80;99.90;;;;;;4937111;28;20030;-77
2022/10/26 06:18:03;;;;;;;4.32;1.00;;;12.80;99.90;;;;;;4962821;28;20371;-77
2022/10/26 06:20:53;;;;;;;3.20;0.70;;;12.90;99.90;;;;;;4963244;28;20073;-78
2022/10/26 06:23:52;;;;;;;2.95;0.85;;;12.90;99.90;;;;;;4958725;28;20035;-77
2022/10/26 06:26:21;;;;;;;4.75;1.17;;;13.00;99.90;;;;;;4935387;28;20352;-78
2022/10/26 06:29:11;;;;;;;1.67;0.98;;;12.90;99.90;;;;;;4976184;28;20053;-78
2022/10/26 06:31:36;;;;;;;4.13;0.70;;;13.00;99.90;;;;;;4966915;28;20054;-78
2022/10/26 06:34:02;;;;;;;4.03;1.02;;;13.00;99.90;;;;;;4946755;28;20410;-78
2022/10/26 06:36:29;;;;;;;5.75;0.85;;;13.10;99.90;;;;;;4960073;28;20502;-78
2022/10/26 06:39:04;;;;;;;4.70;0.70;;;13.10;99.90;;;;;;4958505;28;20547;-77
2022/10/26 06:41:34;;;;;;;2.23;0.93;;;13.10;99.90;;;;;;4967310;28;20398;-77
2022/10/26 06:44:01;;;;;;;7.28;2.03;;;13.10;99.90;;;;;;4974381;28;20038;-78
2022/10/26 06:46:36;;;;;;;3.40;0.82;;;13.10;99.90;;;;;;4960057;28;20043;-78
2022/10/26 06:49:12;;;;;;;4.30;1.08;;;13.10;99.90;;;;;;4954433;28;20030;-78
2022/10/26 06:51:45;;;;;;;0.80;0.70;;;13.10;99.90;;;;;;4957980;28;20034;-78
2022/10/26 06:54:50;;;;;;;2.20;0.70;;;13.10;99.90;;;;;;4965343;28;20066;-77
2022/10/26 06:57:17;;;;;;;5.18;0.68;;;13.20;99.90;;;;;;4906778;29;20507;-77
2022/10/26 07:00:07;;;;;;;3.05;0.68;;;13.30;99.90;;;;;;4943024;28;20030;-77
2022/10/26 07:02:32;;;;;;;2.00;0.60;;;13.30;99.90;;;;;;4949075;28;20023;-77
2022/10/26 07:04:58;;;;;;;3.30;0.80;;;13.30;99.90;;;;;;4948446;28;20041;-78
2022/10/26 07:07:24;;;;;;;1.75;1.25;;;13.40;99.90;;;;;;4945219;28;20133;-78
2022/10/26 07:09:50;;;;;;;4.40;0.85;;;13.30;99.90;;;;;;4959979;28;20324;-78
2022/10/26 07:12:16;;;;;;;2.47;0.70;;;13.30;99.90;;;;;;4962163;28;20033;-77
2022/10/26 07:14:41;;;;;;;2.47;0.70;;;13.40;99.90;;;;;;4943155;28;20434;-78
2022/10/26 07:17:07;;;;;;;1.88;0.68;;;13.50;99.90;;;;;;4980490;28;20031;-77
2022/10/26 07:19:33;;;;;;;1.42;0.57;;;13.50;99.90;;;;;;4944900;28;20045;-78
2022/10/26 07:21:59;;;;;;;1.30;0.70;;;13.50;99.90;;;;;;4961753;28;20038;-78
2022/10/26 07:24:24;;;;;;;0.98;0.50;;;13.60;99.90;;;;;;4949647;28;20069;-78
2022/10/26 07:26:52;;;;;;;1.20;0.47;;;13.60;99.90;;;;;;4953277;28;20402;-78
2022/10/26 07:29:17;;;;;;;4.60;1.00;;;13.70;99.90;;;;;;4970366;28;20386;-78
2022/10/26 07:31:43;;;;;;;1.25;0.70;;;13.80;99.90;;;;;;4952228;28;20037;-78
2022/10/26 07:34:08;;;;;;;2.40;0.60;;;13.90;99.90;;;;;;4949789;28;20033;-78
2022/10/26 07:36:35;;;;;;;6.78;0.93;;;13.90;99.90;;;;;;4966149;28;20050;-78
2022/10/26 07:39:04;;;;;;;2.83;1.23;;;14.00;99.90;;;;;;4961313;28;20042;-78
2022/10/26 07:41:30;;;;;;;1.70;0.80;;;14.00;99.90;;;;;;4963906;28;20494;-78
2022/10/26 07:43:55;;;;;;;3.83;0.82;;;14.10;99.90;;;;;;4967528;28;20034;-78
2022/10/26 07:46:21;;;;;;;7.85;1.27;;;14.10;99.90;;;;;;4936684;28;20126;-78
2022/10/26 07:48:47;;;;;;;2.67;1.00;;;14.20;99.90;;;;;;4948503;28;20031;-78
2022/10/26 07:51:12;;;;;;;0.90;0.70;;;14.20;99.90;;;;;;4983358;28;20494;-78
2022/10/26 07:53:38;;;;;;;3.50;0.70;;;14.30;99.90;;;;;;4978285;28;20026;-78
2022/10/26 07:56:04;;;;;;;2.55;0.90;;;14.30;99.90;;;;;;4964822;28;20370;-78
2022/10/26 07:58:29;;;;;;;4.93;0.70;;;14.30;99.90;;;;;;4953289;28;20066;-78
2022/10/26 08:00:55;;;;;;;0.57;0.52;;;14.40;99.90;;;;;;4952062;28;20437;-78
2022/10/26 08:03:21;;;;;;;6.53;2.28;;;14.40;99.90;;;;;;4951209;28;20035;-77
2022/10/26 08:05:52;;;;;;;2.30;0.70;;;14.50;99.90;;;;;;4946242;28;20105;-79
2022/10/26 08:08:18;;;;;;;2.08;0.57;;;14.70;99.90;;;;;;4947000;28;20058;-78
2022/10/26 08:10:44;;;;;;;8.15;1.00;;;14.80;99.90;;;;;;4952676;28;20109;-79
2022/10/26 08:13:09;;;;;;;4.22;0.60;;;14.90;99.90;;;;;;4963493;28;20054;-79
2022/10/26 08:15:35;;;;;;;3.00;1.00;;;15.00;99.90;;;;;;4980016;28;20042;-78
2022/10/26 08:18:01;;;;;;;2.72;0.90;;;15.20;99.90;;;;;;4950416;28;20584;-78
2022/10/26 08:20:26;;;;;;;1.33;0.90;;;15.40;99.90;;;;;;4943173;28;20057;-78
2022/10/26 08:22:54;;;;;;;3.60;0.90;;;15.60;99.90;;;;;;4951398;28;20030;-78
2022/10/26 08:25:20;;;;;;;3.28;0.88;;;15.60;99.90;;;;;;4967243;28;20502;-77
2022/10/26 08:27:45;;;;;;;1.08;0.73;;;15.70;99.90;;;;;;4960992;28;20038;-79
2022/10/26 08:30:11;;;;;;;1.95;1.10;;;15.70;99.90;;;;;;4978255;28;20180;-79
2022/10/26 08:32:37;;;;;;;3.33;1.05;;;15.80;99.90;;;;;;4949149;28;20496;-78
2022/10/26 08:35:03;;;;;;;3.50;0.90;;;15.90;99.90;;;;;;4961897;28;20066;-79
2022/10/26 08:37:28;;;;;;;8.68;1.25;;;16.00;99.90;;;;;;4947536;28;20464;-79
2022/10/26 08:39:54;;;;;;;3.55;0.98;;;16.10;99.90;;;;;;4949283;28;20042;-78
2022/10/26 08:42:39;;;;;;;2.50;1.00;;;16.50;99.90;;;;;;4962550;28;20030;-78
2022/10/26 08:45:16;;;;;;;2.35;1.02;;;16.40;99.90;;;;;;4947602;28;20048;-78
2022/10/26 08:47:45;;;;;;;3.45;0.70;;;16.80;99.90;;;;;;4947470;28;20150;-78
2022/10/26 08:50:15;;;;;;;2.55;0.88;;;17.00;99.90;;;;;;4937498;28;20392;-78
2022/10/26 08:52:48;;;;;;;2.80;1.00;;;17.10;99.90;;;;;;4945094;28;20038;-78
2022/10/26 08:55:15;;;;;;;3.80;0.98;;;17.30;99.90;;;;;;4952151;28;20045;-78
2022/10/26 08:57:41;;;;;;;1.90;0.90;;;17.10;99.90;;;;;;4952139;28;20375;-78
2022/10/26 09:00:11;;;;;;;3.55;1.00;;;17.20;99.90;;;;;;4961576;28;20159;-79
2022/10/26 09:02:36;;;;;;;8.25;1.48;;;17.50;99.90;;;;;;4949946;28;20056;-78
2022/10/26 09:05:04;;;;;;;6.60;1.17;;;17.60;99.90;;;;;;4982980;28;20487;-79
2022/10/26 09:07:44;;;;;;;1.55;1.00;;;17.70;99.90;;;;;;4896896;28;1085228;-79
2022/10/26 09:10:34;;;;;;;4.53;1.33;;;17.80;99.90;;;;;;4949032;28;20045;-79
2022/10/26 09:13:09;;;;;;;2.90;1.20;;;18.00;99.90;;;;;;4964469;28;20104;-81
2022/10/26 09:15:54;;;;;;;2.22;0.82;;;18.00;99.90;;;;;;4960567;28;20123;-80
2022/10/26 09:18:50;;;;;;;1.35;0.80;;;18.10;99.90;;;;;;4952439;28;20030;-79
2022/10/26 09:21:34;;;;;;;3.33;1.60;;;18.20;99.90;;;;;;4963108;28;20031;-79
2022/10/26 09:23:59;;;;;;;7.75;0.80;;;18.30;99.90;;;;;;4967481;28;20038;-78
2022/10/26 09:27:02;;;;;;;4.50;1.10;;;18.70;99.90;;;;;;4960033;28;20062;-78
2022/10/26 09:29:54;;;;;;;3.42;1.30;;;18.60;99.90;;;;;;4901410;28;20124;-78
2022/10/26 09:32:22;;;;;;;5.53;1.13;;;18.50;99.90;;;;;;4954345;28;20092;-79
2022/10/26 09:34:52;;;;;;;1.83;0.70;;;18.70;99.90;;;;;;4968694;28;20505;-78
2022/10/26 09:37:27;;;;;;;4.05;1.10;;;18.60;99.90;;;;;;4936250;28;20035;-78
2022/10/26 09:39:58;;;;;;;1.25;0.63;;;18.50;99.90;;;;;;4952645;28;20057;-78
2022/10/26 09:42:56;;;;;;;3.58;0.90;;;18.50;99.90;;;;;;4981987;28;20038;-79
2022/10/26 09:45:28;;;;;;;7.32;1.00;;;18.50;99.90;;;;;;4949034;28;20046;-78
2022/10/26 09:47:55;;;;;;;8.45;1.10;;;18.50;99.90;;;;;;4967058;28;20038;-78
2022/10/26 09:50:33;;;;;;;3.22;0.95;;;18.50;99.90;;;;;;4945936;28;20046;-78
2022/10/26 09:52:58;;;;;;;4.72;0.80;;;18.40;99.90;;;;;;4965644;28;20031;-78
2022/10/26 09:55:24;;;;;;;4.68;1.00;;;18.40;99.90;;;;;;4967298;28;20056;-79
2022/10/26 09:57:52;;;;;;;11.50;1.45;;;18.50;99.90;;;;;;4950081;28;20557;-78
2022/10/26 10:00:19;;;;;;;3.78;1.05;;;18.50;99.90;;;;;;4963807;28;20553;-78
2022/10/26 10:02:56;;;;;;;5.82;1.38;;;18.40;99.90;;;;;;4952437;28;20041;-79
2022/10/26 10:05:34;;;;;;;3.10;0.90;;;18.40;99.90;;;;;;4948120;28;20065;-78
2022/10/26 10:08:22;;;;;;;6.32;1.48;;;18.40;99.90;;;;;;4964677;28;20453;-78
2022/10/26 10:10:59;;;;;;;6.20;1.45;;;18.40;99.90;;;;;;4945149;28;20380;-78
2022/10/26 10:13:45;;;;;;;3.30;1.15;;;18.40;99.90;;;;;;4966945;28;20610;-78
2022/10/26 10:16:12;;;;;;;1.23;0.95;;;18.60;99.90;;;;;;4275144;28;10000185;-78
2022/10/26 10:18:39;;;;;;;3.17;1.40;;;18.90;99.90;;;;;;4946643;28;20565;-78
2022/10/26 10:21:05;;;;;;;4.93;1.30;;;19.10;99.90;;;;;;4944762;28;20498;-78
2022/10/26 10:23:46;;;;;;;2.67;1.38;;;19.20;99.90;;;;;;4942681;28;20030;-78
2022/10/26 10:26:12;;;;;;;6.70;1.27;;;19.30;99.90;;;;;;4948144;28;20104;-78
2022/10/26 10:28:38;;;;;;;6.90;2.63;;;19.40;99.90;;;;;;4958431;28;20077;-77
2022/10/26 10:31:17;;;;;;;3.38;1.38;;;19.60;99.90;;;;;;4947246;28;20026;-78
2022/10/26 10:33:44;;;;;;;2.97;1.35;;;19.80;99.90;;;;;;4928504;28;20034;-78
2022/10/26 10:36:14;;;;;;;3.58;1.15;;;19.90;99.90;;;;;;4944549;28;20097;-79
2022/10/26 10:38:41;;;;;;;6.82;1.45;;;20.00;99.90;;;;;;4955360;28;20035;-78
2022/10/26 10:41:38;;;;;;;3.85;1.52;;;20.20;99.90;;;;;;4919412;28;20031;-78
2022/10/26 10:44:22;;;;;;;4.70;1.35;;;20.20;99.90;;;;;;4961729;28;20034;-78
2022/10/26 10:46:48;;;;;;;5.78;1.60;;;20.30;99.90;;;;;;4960011;28;20077;-78
2022/10/26 10:49:24;;;;;;;3.05;1.17;;;20.50;99.90;;;;;;4959982;28;20034;-78
2022/10/26 10:51:49;;;;;;;5.55;1.52;;;20.50;99.90;;;;;;4948665;28;20382;-78
2022/10/26 10:54:27;;;;;;;5.75;1.02;;;20.40;99.90;;;;;;4936937;28;20030;-78
2022/10/26 10:57:19;;;;;;;4.10;1.30;;;20.80;99.90;;;;;;4948223;28;20118;-78
2022/10/26 11:00:02;;;;;;;2.45;0.85;;;20.90;99.90;;;;;;4965113;28;20031;-78
2022/10/26 11:02:59;;;;;;;4.75;1.60;;;21.20;99.90;;;;;;4966284;28;20039;-78
2022/10/26 11:05:25;;;;;;;;;;;21.00;99.90;;;;;;4978419;28;20603;-78
2022/10/26 11:08:19;;;;;;;9.93;1.73;;;21.10;99.90;;;;;;4960641;28;19929;-78
2022/10/26 11:10:50;;;;;;;2.65;1.23;;;21.50;99.90;;;;;;4959217;28;20161;-78
2022/10/26 11:13:28;;;;;;;4.60;2.00;;;21.30;99.90;;;;;;4951313;28;20030;-78
2022/10/26 11:16:00;;;;;;;4.45;2.00;;;21.50;99.90;;;;;;4961914;28;20081;-78
2022/10/26 11:18:36;;;;;;;4.35;1.15;;;21.40;99.90;;;;;;4961628;28;20558;-78
2022/10/26 11:21:16;;;;;;;7.68;1.58;;;21.50;99.90;;;;;;4965808;28;20038;-79
2022/10/26 11:24:14;;;;;;;5.10;2.33;;;21.50;99.90;;;;;;4957796;28;20467;-78
2022/10/26 11:26:54;;;;;;;5.22;1.75;;;21.50;99.90;;;;;;4955957;28;20034;-78
2022/10/26 11:29:43;;;;;;;3.92;1.13;;;21.50;99.90;;;;;;4946668;28;20121;-78
2022/10/26 11:32:24;;;;;;;3.33;1.80;;;21.60;99.90;;;;;;4961761;28;20031;-79
2022/10/26 11:34:53;;;;;;;3.35;1.40;;;21.50;99.90;;;;;;4945559;28;20026;-78
2022/10/26 11:37:36;;;;;;;1.50;1.02;;;21.80;99.90;;;;;;4976665;28;20653;-78
2022/10/26 11:40:33;;;;;;;3.88;1.70;;;22.10;99.90;;;;;;4957536;28;20517;-78
2022/10/26 11:43:35;;;;;;;4.32;1.70;;;22.20;99.90;;;;;;4960903;28;20538;-78
2022/10/26 11:46:02;;;;;;;2.35;0.98;;;22.20;99.90;;;;;;4978867;28;20038;-78
2022/10/26 11:48:47;;;;;;;2.97;1.30;;;22.30;99.90;;;;;;4947018;28;20104;-79
2022/10/26 11:51:34;;;;;;;6.22;1.45;;;22.10;99.90;;;;;;4978135;28;20031;-79
2022/10/26 11:54:03;;;;;;;6.43;1.65;;;22.00;99.90;;;;;;4948947;28;20410;-79
2022/10/26 11:56:31;;;;;;;4.38;1.50;;;22.30;99.90;;;;;;4950709;28;20387;-78
2022/10/26 11:58:58;;;;;;;4.70;1.55;;;22.20;99.90;;;;;;4948956;28;20031;-79
2022/10/26 12:01:23;;;;;;;8.50;1.90;;;22.40;99.90;;;;;;4948534;28;20054;-79
2022/10/26 12:03:50;;;;;;;4.40;1.40;;;22.30;99.90;;;;;;4967108;28;20100;-79
2022/10/26 12:06:19;;;;;;;6.82;1.73;;;22.40;99.90;;;;;;4949210;28;20514;-79
2022/10/26 12:08:50;;;;;;;4.53;1.45;;;22.40;99.90;;;;;;4954200;28;20601;-79
2022/10/26 12:11:37;;;;;;;6.93;1.88;;;23.00;99.90;;;;;;4951467;28;20390;-79
2022/10/26 12:14:21;;;;;;;7.18;2.08;;;23.10;99.90;;;;;;4930864;28;20031;-79
2022/10/26 12:16:52;;;;;;;4.72;1.73;;;23.00;99.90;;;;;;4982837;28;20363;-79
2022/10/26 12:19:54;;;;;;;5.50;1.90;;;22.40;99.90;;;;;;4980405;28;20097;-79
2022/10/26 12:22:21;;;;;;;3.40;1.10;;;22.50;99.90;;;;;;4966886;28;20478;-79
2022/10/26 12:25:07;;;;;;;6.45;1.55;;;22.80;99.90;;;;;;4962886;28;20553;-79
2022/10/26 12:27:39;;;;;;;3.60;1.42;;;23.10;99.90;;;;;;4964920;28;20092;-79
2022/10/26 12:30:11;;;;;;;3.10;1.20;;;23.00;99.90;;;;;;4982536;28;20398;-79
2022/10/26 12:32:36;;;;;;;4.65;0.73;;;23.10;99.90;;;;;;4977451;28;20034;-79
2022/10/26 12:35:30;;;;;;;1.23;1.13;;;23.20;99.90;;;;;;4976352;28;20118;-79
2022/10/26 12:37:56;;;;;;;2.88;1.02;;;23.10;99.90;;;;;;4975402;28;20037;-79
2022/10/26 12:40:39;;;;;;;4.13;1.08;;;23.20;99.90;;;;;;4951817;28;20038;-79
2022/10/26 12:43:16;;;;;;;4.22;0.82;;;23.20;99.90;;;;;;4961279;28;20108;-79
2022/10/26 12:45:43;;;;;;;1.98;0.90;;;23.20;99.90;;;;;;4978269;28;20034;-79
2022/10/26 12:48:21;;;;;;;4.68;1.00;;;23.30;99.90;;;;;;4948590;28;20691;-79
2022/10/26 12:50:47;;;;;;;1.38;0.70;;;23.20;99.90;;;;;;4959126;28;20034;-79
2022/10/26 12:53:17;;;;;;;8.13;1.13;;;23.20;99.90;;;;;;4949853;28;20066;-79
2022/10/26 12:55:49;;;;;;;5.28;0.80;;;23.30;99.90;;;;;;4949529;28;20748;-79
2022/10/26 12:58:29;;;;;;;3.50;0.85;;;23.30;99.90;;;;;;4980854;28;20034;-79
2022/10/26 13:00:57;;;;;;;3.88;0.90;;;23.40;99.90;;;;;;4981945;28;20022;-79
2022/10/26 13:03:43;;;;;;;2.97;0.95;;;23.40;99.90;;;;;;4963381;28;20054;-79
2022/10/26 13:06:26;;;;;;;4.57;0.80;;;23.40;99.90;;;;;;4979950;28;20031;-79
2022/10/26 13:08:53;;;;;;;8.23;1.00;;;23.00;99.90;;;;;;4968630;28;20034;-80